createdAt,value
2018-04-07T00:00:38.198Z,5.2
2018-04-07T00:01:40.627Z,5
2018-04-07T00:02:43.064Z,5.1
2018-04-07T00:03:45.879Z,5.1
2018-04-07T00:04:48.316Z,5.1
2018-04-07T00:05:51.022Z,5.1
2018-04-07T00:06:53.456Z,5.1
2018-04-07T00:07:56.169Z,5.2
2018-04-07T00:08:58.595Z,5.2
2018-04-07T00:10:01.030Z,5.2
2018-04-07T00:11:03.449Z,5.1
2018-04-07T00:12:05.891Z,5.2
2018-04-07T00:13:08.326Z,5.1
2018-04-07T00:14:10.750Z,5.1
2018-04-07T00:15:13.182Z,5.1
2018-04-07T00:16:15.891Z,5.1
2018-04-07T00:17:18.324Z,5.2
2018-04-07T00:18:20.755Z,5.1
2018-04-07T00:19:23.185Z,5.2
2018-04-07T00:20:25.601Z,5.1
2018-04-07T00:21:28.043Z,5.1
2018-04-07T00:22:30.482Z,5.1
2018-04-07T00:23:32.899Z,5
2018-04-07T00:24:35.613Z,5.2
2018-04-07T00:25:38.040Z,5.1
2018-04-07T00:26:40.457Z,5.2
2018-04-07T00:27:42.892Z,5.2
2018-04-07T00:28:45.702Z,5.1
2018-04-07T00:29:48.133Z,5.1
2018-04-07T00:30:50.562Z,5.1
2018-04-07T00:31:52.989Z,5.1
2018-04-07T00:32:55.426Z,5.1
2018-04-07T00:33:57.855Z,5.1
2018-04-07T00:35:00.286Z,5.1
2018-04-07T00:36:02.728Z,5.2
2018-04-07T00:37:05.154Z,5.2
2018-04-07T00:38:08.175Z,5.1
2018-04-07T00:39:10.605Z,5.3
2018-04-07T00:40:13.029Z,5.1
2018-04-07T00:41:15.739Z,5.1
2018-04-07T00:42:18.163Z,5.1
2018-04-07T00:43:20.587Z,5.1
2018-04-07T00:44:23.024Z,5.1
2018-04-07T00:45:25.448Z,5.2
2018-04-07T00:46:28.166Z,5.2
2018-04-07T00:47:30.604Z,5.2
2018-04-07T00:48:33.318Z,5.1
2018-04-07T00:49:35.755Z,5.3
2018-04-07T00:50:38.177Z,5.1
2018-04-07T00:51:41.279Z,5.1
2018-04-07T00:52:44.024Z,5.1
2018-04-07T00:53:46.452Z,5.1
2018-04-07T00:54:48.882Z,5
2018-04-07T00:55:51.314Z,5.1
2018-04-07T00:56:53.746Z,5.2
2018-04-07T00:57:56.186Z,5.1
2018-04-07T00:58:58.613Z,5.2
2018-04-07T01:00:01.049Z,5.1
2018-04-07T01:01:03.763Z,5
2018-04-07T01:02:06.194Z,5.1
2018-04-07T01:03:08.618Z,5
2018-04-07T01:04:11.046Z,5.1
2018-04-07T01:05:13.470Z,5.2
2018-04-07T01:06:15.905Z,5.1
2018-04-07T01:07:18.346Z,5.1
2018-04-07T01:08:20.769Z,5.1
2018-04-07T01:09:23.204Z,5.2
2018-04-07T01:10:25.633Z,5.1
2018-04-07T01:11:28.343Z,5.1
2018-04-07T01:12:30.782Z,5.1
2018-04-07T01:13:33.208Z,5.2
2018-04-07T01:14:35.636Z,5.1
2018-04-07T01:15:38.456Z,5.1
2018-04-07T01:16:40.880Z,5.1
2018-04-07T01:17:43.308Z,5.1
2018-04-07T01:18:45.747Z,5.1
2018-04-07T01:19:48.161Z,5
2018-04-07T01:20:50.591Z,5.1
2018-04-07T01:21:53.027Z,5.2
2018-04-07T01:22:55.450Z,5.1
2018-04-07T01:23:57.888Z,5.1
2018-04-07T01:25:00.316Z,5.1
2018-04-07T01:26:02.750Z,5.1
2018-04-07T01:27:05.485Z,5.1
2018-04-07T01:28:07.920Z,5
2018-04-07T01:29:10.354Z,5.1
2018-04-07T01:30:12.783Z,5.1
2018-04-07T01:31:15.205Z,5.2
2018-04-07T01:32:17.639Z,5.1
2018-04-07T01:33:20.348Z,5.1
2018-04-07T01:34:22.785Z,5.2
2018-04-07T01:35:25.509Z,5.1
2018-04-07T01:36:27.963Z,5.2
2018-04-07T01:37:30.395Z,5.1
2018-04-07T01:38:33.227Z,5.1
2018-04-07T01:39:35.655Z,5.1
2018-04-07T01:40:38.089Z,5.1
2018-04-07T01:41:40.518Z,5
2018-04-07T01:42:42.949Z,5.1
2018-04-07T01:43:45.379Z,5.2
2018-04-07T01:44:48.485Z,5.1
2018-04-07T01:45:50.901Z,5.2
2018-04-07T01:46:53.333Z,5.2
2018-04-07T01:47:55.763Z,5.1
2018-04-07T01:48:58.186Z,5.1
2018-04-07T01:50:00.900Z,5
2018-04-07T01:51:03.331Z,5
2018-04-07T01:52:06.046Z,5
2018-04-07T01:53:08.464Z,5.1
2018-04-07T01:54:10.901Z,5.1
2018-04-07T01:55:13.338Z,5.2
2018-04-07T01:56:16.052Z,5.1
2018-04-07T01:57:18.474Z,5.1
2018-04-07T01:58:20.906Z,5
2018-04-07T01:59:23.325Z,5
2018-04-07T02:00:25.753Z,5.1
2018-04-07T02:01:28.189Z,5.1
2018-04-07T02:02:30.896Z,5.1
2018-04-07T02:03:33.335Z,5.2
2018-04-07T02:04:35.765Z,5.1
2018-04-07T02:05:38.586Z,5
2018-04-07T02:06:41.026Z,5.2
2018-04-07T02:07:43.444Z,5.1
2018-04-07T02:08:45.866Z,5.1
2018-04-07T02:09:48.598Z,5.2
2018-04-07T02:10:51.019Z,5
2018-04-07T02:11:53.447Z,5
2018-04-07T02:12:55.885Z,5.1
2018-04-07T02:13:58.302Z,5.2
2018-04-07T02:15:00.735Z,5.1
2018-04-07T02:16:03.166Z,5.1
2018-04-07T02:17:05.589Z,5.1
2018-04-07T02:18:08.019Z,5.2
2018-04-07T02:19:10.446Z,5.1
2018-04-07T02:20:12.875Z,5
2018-04-07T02:21:15.312Z,5.2
2018-04-07T02:22:17.751Z,5.2
2018-04-07T02:23:20.188Z,5.2
2018-04-07T02:24:22.613Z,5.1
2018-04-07T02:25:25.042Z,5.1
2018-04-07T02:26:27.475Z,5.1
2018-04-07T02:27:29.900Z,5
2018-04-07T02:28:32.320Z,5.2
2018-04-07T02:29:34.754Z,5.1
2018-04-07T02:30:37.569Z,5.1
2018-04-07T02:31:39.994Z,5.1
2018-04-07T02:32:42.433Z,5.2
2018-04-07T02:33:44.871Z,5.1
2018-04-07T02:34:47.674Z,5.1
2018-04-07T02:35:50.404Z,5
2018-04-07T02:36:53.122Z,5.1
2018-04-07T02:37:55.560Z,5
2018-04-07T02:38:57.986Z,5
2018-04-07T02:40:00.417Z,5.1
2018-04-07T02:41:03.466Z,5.1
2018-04-07T02:42:06.191Z,5.1
2018-04-07T02:43:08.609Z,5.1
2018-04-07T02:44:11.345Z,5.1
2018-04-07T02:45:13.769Z,5.1
2018-04-07T02:46:16.194Z,5.1
2018-04-07T02:47:18.629Z,5.1
2018-04-07T02:48:21.057Z,5.1
2018-04-07T02:49:23.484Z,5.1
2018-04-07T02:50:26.630Z,5
2018-04-07T02:51:29.065Z,5.1
2018-04-07T02:52:31.496Z,5.1
2018-04-07T02:53:33.917Z,5.1
2018-04-07T02:54:36.354Z,5.1
2018-04-07T02:55:38.777Z,5.3
2018-04-07T02:56:41.205Z,5.1
2018-04-07T02:57:43.638Z,5.1
2018-04-07T02:58:46.066Z,5.2
2018-04-07T02:59:48.500Z,5
2018-04-07T03:00:51.234Z,5.1
2018-04-07T03:01:53.653Z,5.1
2018-04-07T03:02:56.083Z,5.1
2018-04-07T03:03:58.516Z,5.1
2018-04-07T03:05:00.945Z,5.1
2018-04-07T03:06:03.371Z,5.1
2018-04-07T03:07:05.802Z,5.1
2018-04-07T03:08:08.231Z,5
2018-04-07T03:09:10.662Z,5
2018-04-07T03:10:13.397Z,5.1
2018-04-07T03:11:15.825Z,5.1
2018-04-07T03:12:18.534Z,5.1
2018-04-07T03:13:20.961Z,5.1
2018-04-07T03:14:23.399Z,5.1
2018-04-07T03:15:26.804Z,5.1
2018-04-07T03:16:29.234Z,5.1
2018-04-07T03:17:31.671Z,5.1
2018-04-07T03:18:34.396Z,5.2
2018-04-07T03:19:37.117Z,5.1
2018-04-07T03:20:39.820Z,5.1
2018-04-07T03:21:42.539Z,5
2018-04-07T03:22:44.964Z,5
2018-04-07T03:23:47.406Z,5
2018-04-07T03:24:49.827Z,5
2018-04-07T03:25:52.252Z,5.1
2018-04-07T03:26:54.684Z,5.1
2018-04-07T03:27:57.117Z,5.1
2018-04-07T03:28:59.552Z,5.1
2018-04-07T03:30:01.999Z,5.1
2018-04-07T03:31:04.813Z,5.2
2018-04-07T03:32:07.251Z,5
2018-04-07T03:33:09.685Z,5
2018-04-07T03:34:12.102Z,5.1
2018-04-07T03:35:14.822Z,5.2
2018-04-07T03:36:17.254Z,5.1
2018-04-07T03:37:19.679Z,5.1
2018-04-07T03:38:22.491Z,5.1
2018-04-07T03:39:24.914Z,5.1
2018-04-07T03:40:27.657Z,5.2
2018-04-07T03:41:30.086Z,5.1
2018-04-07T03:42:32.518Z,5
2018-04-07T03:43:34.947Z,5
2018-04-07T03:44:37.676Z,5
2018-04-07T03:45:40.378Z,5.1
2018-04-07T03:46:43.099Z,5.1
2018-04-07T03:47:45.527Z,5.1
2018-04-07T03:48:47.962Z,5.2
2018-04-07T03:49:50.390Z,5.1
2018-04-07T03:50:52.814Z,5.1
2018-04-07T03:51:55.250Z,5.1
2018-04-07T03:52:57.671Z,5.1
2018-04-07T03:54:00.107Z,5.1
2018-04-07T03:55:02.818Z,5.1
2018-04-07T03:56:05.259Z,5.1
2018-04-07T03:57:08.060Z,5.1
2018-04-07T03:58:10.797Z,5.2
2018-04-07T03:59:13.217Z,5.2
2018-04-07T04:00:16.323Z,5.1
2018-04-07T04:01:18.752Z,5.1
2018-04-07T04:02:21.176Z,5.1
2018-04-07T04:03:23.886Z,5.2
2018-04-07T04:04:26.319Z,5.1
2018-04-07T04:05:29.017Z,5.1
2018-04-07T04:06:31.451Z,5
2018-04-07T04:07:33.875Z,5.1
2018-04-07T04:08:36.582Z,5
2018-04-07T04:09:39.301Z,5.1
2018-04-07T04:10:41.736Z,5.2
2018-04-07T04:11:44.168Z,5.2
2018-04-07T04:12:46.601Z,5.1
2018-04-07T04:13:49.033Z,5.1
2018-04-07T04:14:51.762Z,5.1
2018-04-07T04:15:54.203Z,5.1
2018-04-07T04:16:57.493Z,5.1
2018-04-07T04:17:59.921Z,5
2018-04-07T04:19:02.629Z,5
2018-04-07T04:20:05.060Z,5
2018-04-07T04:21:07.484Z,5
2018-04-07T04:22:09.907Z,5
2018-04-07T04:23:12.626Z,5.1
2018-04-07T04:24:15.061Z,5.1
2018-04-07T04:25:17.485Z,5.1
2018-04-07T04:26:19.919Z,5.1
2018-04-07T04:27:22.343Z,5.1
2018-04-07T04:28:24.773Z,5.1
2018-04-07T04:29:27.208Z,5.1
2018-04-07T04:30:29.634Z,5
2018-04-07T04:31:32.053Z,5.1
2018-04-07T04:32:34.493Z,5.1
2018-04-07T04:33:36.916Z,5.1
2018-04-07T04:34:39.648Z,5.1
2018-04-07T04:35:42.084Z,5.1
2018-04-07T04:36:44.509Z,5.1
2018-04-07T04:37:47.227Z,5
2018-04-07T04:38:50.037Z,5
2018-04-07T04:39:52.743Z,5
2018-04-07T04:40:55.176Z,5.1
2018-04-07T04:41:57.612Z,5.1
2018-04-07T04:43:00.038Z,5.1
2018-04-07T04:44:02.857Z,5.1
2018-04-07T04:45:05.283Z,5.2
2018-04-07T04:46:07.705Z,5.1
2018-04-07T04:47:10.421Z,5.1
2018-04-07T04:48:12.852Z,5.1
2018-04-07T04:49:15.265Z,5.1
2018-04-07T04:50:17.707Z,5
2018-04-07T04:51:20.440Z,5
2018-04-07T04:52:22.873Z,5
2018-04-07T04:53:25.300Z,5.2
2018-04-07T04:54:28.015Z,5.1
2018-04-07T04:55:30.449Z,5.1
2018-04-07T04:56:32.855Z,5.1
2018-04-07T04:57:35.290Z,5.1
2018-04-07T04:58:37.729Z,5
2018-04-07T04:59:40.147Z,5
2018-04-07T05:00:42.864Z,5.1
2018-04-07T05:01:45.290Z,5
2018-04-07T05:02:47.717Z,5.1
2018-04-07T05:03:50.159Z,5.1
2018-04-07T05:04:52.876Z,5.1
2018-04-07T05:05:55.301Z,5.1
2018-04-07T05:06:57.743Z,5.1
2018-04-07T05:08:00.452Z,5
2018-04-07T05:09:03.178Z,5.1
2018-04-07T05:10:05.612Z,5.1
2018-04-07T05:11:08.039Z,5
2018-04-07T05:12:10.475Z,5.1
2018-04-07T05:13:12.889Z,5.1
2018-04-07T05:14:15.305Z,5.1
2018-04-07T05:15:17.748Z,5.1
2018-04-07T05:16:20.458Z,5.1
2018-04-07T05:17:23.167Z,5.1
2018-04-07T05:18:25.596Z,5.1
2018-04-07T05:19:28.023Z,5.1
2018-04-07T05:20:30.459Z,5
2018-04-07T05:21:32.897Z,5
2018-04-07T05:22:35.316Z,5
2018-04-07T05:23:37.751Z,5.1
2018-04-07T05:24:40.177Z,5.1
2018-04-07T05:25:42.893Z,5.1
2018-04-07T05:26:45.324Z,5.1
2018-04-07T05:27:47.750Z,5.1
2018-04-07T05:28:50.165Z,5
2018-04-07T05:29:52.609Z,5
2018-04-07T05:30:55.032Z,5
2018-04-07T05:31:57.457Z,5.2
2018-04-07T05:33:00.179Z,5.1
2018-04-07T05:34:02.887Z,5.1
2018-04-07T05:35:05.983Z,5.2
2018-04-07T05:36:08.414Z,5.1
2018-04-07T05:37:10.843Z,5.1
2018-04-07T05:38:13.270Z,5.2
2018-04-07T05:39:16.080Z,5
2018-04-07T05:40:18.508Z,5.1
2018-04-07T05:41:20.923Z,5.1
2018-04-07T05:42:23.356Z,5.1
2018-04-07T05:43:25.783Z,5
2018-04-07T05:44:28.211Z,5.1
2018-04-07T05:45:30.637Z,5.1
2018-04-07T05:46:33.078Z,5.1
2018-04-07T05:47:35.506Z,5.2
2018-04-07T05:48:37.938Z,5.1
2018-04-07T05:49:40.360Z,5.1
2018-04-07T05:50:42.783Z,5.1
2018-04-07T05:51:45.213Z,5
2018-04-07T05:52:47.649Z,5.1
2018-04-07T05:53:50.067Z,5.1
2018-04-07T05:54:52.494Z,5.2
2018-04-07T05:55:55.211Z,5.1
2018-04-07T05:56:57.935Z,5.2
2018-04-07T05:58:00.358Z,5.1
2018-04-07T05:59:02.793Z,5
2018-04-07T06:00:05.215Z,5.1
2018-04-07T06:01:07.648Z,5.2
2018-04-07T06:02:10.366Z,5.2
2018-04-07T06:03:13.075Z,5.2
2018-04-07T06:04:15.508Z,5.2
2018-04-07T06:05:17.921Z,5.1
2018-04-07T06:06:20.640Z,5.2
2018-04-07T06:07:23.074Z,5.1
2018-04-07T06:08:25.505Z,5.1
2018-04-07T06:09:27.923Z,5.1
2018-04-07T06:10:30.352Z,5.1
2018-04-07T06:11:32.774Z,5.2
2018-04-07T06:12:35.209Z,5.1
2018-04-07T06:13:37.935Z,5.2
2018-04-07T06:14:40.637Z,5.2
2018-04-07T06:15:43.074Z,5.1
2018-04-07T06:16:45.517Z,5.2
2018-04-07T06:17:47.935Z,5.2
2018-04-07T06:18:50.368Z,5.1
2018-04-07T06:19:53.080Z,5.1
2018-04-07T06:20:55.507Z,5.1
2018-04-07T06:21:58.228Z,5.2
2018-04-07T06:23:00.957Z,5.2
2018-04-07T06:24:03.798Z,5.2
2018-04-07T06:25:06.229Z,5.3
2018-04-07T06:26:08.655Z,5.2
2018-04-07T06:27:11.466Z,5.3
2018-04-07T06:28:13.895Z,5.2
2018-04-07T06:29:16.325Z,5.3
2018-04-07T06:30:18.745Z,5.3
2018-04-07T06:31:21.176Z,5.2
2018-04-07T06:32:23.599Z,5.3
2018-04-07T06:33:26.036Z,5.2
2018-04-07T06:34:29.056Z,5.2
2018-04-07T06:35:31.775Z,5.4
2018-04-07T06:36:34.196Z,5.3
2018-04-07T06:37:36.620Z,5.3
2018-04-07T06:38:39.065Z,5.2
2018-04-07T06:39:41.484Z,5.2
2018-04-07T06:40:43.912Z,5.2
2018-04-07T06:41:46.341Z,5.2
2018-04-07T06:42:49.062Z,5.2
2018-04-07T06:43:51.777Z,5.3
2018-04-07T06:44:54.212Z,5.2
2018-04-07T06:45:56.641Z,5.3
2018-04-07T06:46:59.060Z,5.3
2018-04-07T06:48:01.945Z,5.3
2018-04-07T06:49:04.365Z,5.2
2018-04-07T06:50:06.776Z,5.2
2018-04-07T06:51:09.494Z,5.3
2018-04-07T06:52:11.926Z,5.2
2018-04-07T06:53:14.348Z,5.2
2018-04-07T06:54:16.784Z,5.3
2018-04-07T06:55:19.221Z,5.3
2018-04-07T06:56:21.660Z,5.3
2018-04-07T06:57:24.140Z,5.3
2018-04-07T06:58:26.513Z,5.3
2018-04-07T06:59:29.220Z,5.3
2018-04-07T07:00:31.672Z,5.3
2018-04-07T07:01:34.090Z,5.2
2018-04-07T07:02:36.512Z,5.3
2018-04-07T07:03:39.232Z,5.3
2018-04-07T07:04:41.653Z,5.4
2018-04-07T07:05:44.091Z,5.4
2018-04-07T07:06:46.518Z,5.4
2018-04-07T07:07:48.957Z,5.2
2018-04-07T07:08:51.382Z,5.3
2018-04-07T07:09:54.110Z,5.2
2018-04-07T07:10:56.506Z,5.4
2018-04-07T07:11:58.881Z,5.4
2018-04-07T07:13:01.269Z,5.4
2018-04-07T07:14:03.918Z,5.3
2018-04-07T07:15:06.417Z,5.4
2018-04-07T07:16:08.787Z,5.3
2018-04-07T07:17:11.275Z,5.2
2018-04-07T07:18:13.649Z,5.3
2018-04-07T07:19:16.258Z,5.2
2018-04-07T07:20:18.914Z,5.4
2018-04-07T07:21:21.284Z,5.4
2018-04-07T07:22:23.671Z,5.4
2018-04-07T07:23:26.056Z,5.4
2018-04-07T07:24:28.432Z,5.3
2018-04-07T07:25:31.030Z,5.4
2018-04-07T07:26:33.986Z,5.4
2018-04-07T07:27:36.760Z,5.3
2018-04-07T07:28:39.147Z,5.3
2018-04-07T07:29:41.527Z,5.4
2018-04-07T07:30:44.281Z,5.4
2018-04-07T07:31:46.662Z,5.5
2018-04-07T07:32:49.814Z,5.4
2018-04-07T07:33:52.483Z,5.5
2018-04-07T07:34:55.136Z,5.4
2018-04-07T07:35:57.514Z,5.4
2018-04-07T07:37:00.257Z,5.4
2018-04-07T07:38:02.893Z,5.6
2018-04-07T07:39:05.265Z,5.4
2018-04-07T07:40:07.642Z,5.5
2018-04-07T07:41:10.019Z,5.4
2018-04-07T07:42:12.415Z,5.4
2018-04-07T07:43:14.780Z,5.4
2018-04-07T07:44:17.442Z,5.4
2018-04-07T07:45:20.141Z,5.4
2018-04-07T07:46:22.799Z,5.4
2018-04-07T07:47:25.227Z,5.4
2018-04-07T07:48:27.563Z,5.4
2018-04-07T07:49:30.241Z,5.4
2018-04-07T07:50:32.996Z,5.4
2018-04-07T07:51:35.384Z,5.6
2018-04-07T07:52:37.754Z,5.5
2018-04-07T07:53:40.127Z,5.5
2018-04-07T07:54:42.757Z,5.5
2018-04-07T07:55:45.133Z,5.4
2018-04-07T07:56:47.826Z,5.5
2018-04-07T07:57:50.208Z,5.4
2018-04-07T07:58:52.869Z,5.4
2018-04-07T07:59:55.639Z,5.5
2018-04-07T08:00:57.980Z,5.5
2018-04-07T08:02:00.342Z,5.4
2018-04-07T08:03:03.467Z,5.4
2018-04-07T08:04:05.846Z,5.5
2018-04-07T08:05:08.560Z,5.5
2018-04-07T08:06:10.946Z,5.4
2018-04-07T08:07:13.311Z,5.4
2018-04-07T08:08:15.700Z,5.4
2018-04-07T08:09:18.381Z,5.6
2018-04-07T08:10:20.763Z,5.5
2018-04-07T08:11:23.138Z,5.6
2018-04-07T08:12:25.514Z,5.5
2018-04-07T08:13:27.887Z,5.6
2018-04-07T08:14:30.273Z,5.5
2018-04-07T08:15:32.647Z,5.5
2018-04-07T08:16:35.025Z,5.4
2018-04-07T08:17:37.701Z,5.5
2018-04-07T08:18:41.072Z,5.6
2018-04-07T08:19:43.448Z,5.6
2018-04-07T08:20:45.861Z,5.5
2018-04-07T08:21:48.218Z,5.6
2018-04-07T08:22:50.591Z,5.5
2018-04-07T08:23:52.977Z,5.5
2018-04-07T08:24:55.414Z,5.5
2018-04-07T08:25:57.911Z,5.4
2018-04-07T08:27:00.303Z,5.6
2018-04-07T08:28:02.975Z,5.6
2018-04-07T08:29:05.355Z,5.5
2018-04-07T08:30:08.409Z,5.6
2018-04-07T08:31:11.079Z,5.6
2018-04-07T08:32:13.609Z,5.5
2018-04-07T08:33:15.845Z,5.6
2018-04-07T08:34:18.907Z,5.6
2018-04-07T08:35:21.280Z,5.6
2018-04-07T08:36:23.954Z,5.7
2018-04-07T08:37:26.748Z,5.5
2018-04-07T08:38:29.142Z,5.7
2018-04-07T08:39:32.087Z,5.7
2018-04-07T08:40:34.327Z,5.6
2018-04-07T08:41:36.724Z,5.5
2018-04-07T08:42:39.138Z,5.5
2018-04-07T08:43:41.791Z,5.6
2018-04-07T08:44:44.482Z,5.6
2018-04-07T08:45:47.251Z,5.6
2018-04-07T08:46:49.641Z,5.5
2018-04-07T08:47:52.303Z,5.6
2018-04-07T08:48:54.681Z,5.6
2018-04-07T08:49:57.069Z,5.7
2018-04-07T08:50:59.483Z,5.5
2018-04-07T08:52:02.153Z,5.6
2018-04-07T08:53:04.853Z,5.5
2018-04-07T08:54:07.201Z,5.7
2018-04-07T08:55:09.586Z,5.7
2018-04-07T08:56:11.984Z,5.6
2018-04-07T08:57:14.368Z,5.7
2018-04-07T08:58:17.030Z,5.7
2018-04-07T08:59:19.417Z,5.6
2018-04-07T09:00:21.806Z,5.6
2018-04-07T09:01:24.217Z,5.7
2018-04-07T09:02:26.628Z,5.5
2018-04-07T09:03:29.030Z,5.7
2018-04-07T09:04:31.863Z,5.7
2018-04-07T09:05:34.323Z,5.7
2018-04-07T09:06:36.708Z,5.6
2018-04-07T09:07:39.862Z,5.6
2018-04-07T09:08:42.301Z,5.6
2018-04-07T09:09:44.767Z,5.6
2018-04-07T09:10:47.226Z,5.7
2018-04-07T09:11:49.652Z,5.7
2018-04-07T09:12:52.071Z,5.8
2018-04-07T09:13:54.459Z,5.7
2018-04-07T09:14:56.862Z,5.7
2018-04-07T09:15:59.251Z,5.6
2018-04-07T09:17:01.673Z,5.7
2018-04-07T09:18:04.160Z,5.7
2018-04-07T09:19:06.842Z,5.8
2018-04-07T09:20:09.242Z,5.8
2018-04-07T09:21:11.660Z,5.8
2018-04-07T09:22:14.711Z,5.7
2018-04-07T09:23:17.125Z,5.8
2018-04-07T09:24:19.628Z,5.8
2018-04-07T09:25:22.076Z,5.7
2018-04-07T09:26:24.516Z,5.7
2018-04-07T09:27:26.901Z,5.7
2018-04-07T09:28:29.305Z,5.8
2018-04-07T09:29:31.952Z,5.8
2018-04-07T09:30:35.130Z,5.7
2018-04-07T09:31:37.632Z,5.7
2018-04-07T09:32:40.504Z,5.7
2018-04-07T09:33:43.019Z,5.8
2018-04-07T09:34:45.436Z,5.8
2018-04-07T09:35:47.820Z,5.8
2018-04-07T09:36:50.203Z,5.8
2018-04-07T09:37:52.599Z,5.8
2018-04-07T09:38:55.258Z,5.8
2018-04-07T09:39:58.040Z,5.8
2018-04-07T09:41:00.717Z,5.7
2018-04-07T09:42:03.455Z,5.7
2018-04-07T09:43:05.832Z,5.8
2018-04-07T09:44:08.213Z,5.8
2018-04-07T09:45:10.603Z,5.8
2018-04-07T09:46:12.995Z,5.8
2018-04-07T09:47:15.389Z,5.8
2018-04-07T09:48:17.778Z,5.8
2018-04-07T09:49:20.165Z,5.7
2018-04-07T09:50:22.840Z,5.9
2018-04-07T09:51:25.239Z,5.9
2018-04-07T09:52:27.626Z,6
2018-04-07T09:53:30.019Z,5.8
2018-04-07T09:54:32.399Z,5.9
2018-04-07T09:55:34.782Z,5.9
2018-04-07T09:56:37.161Z,5.9
2018-04-07T09:57:39.551Z,5.9
2018-04-07T09:58:41.934Z,5.9
2018-04-07T09:59:44.657Z,5.9
2018-04-07T10:00:47.025Z,5.8
2018-04-07T10:01:49.417Z,5.9
2018-04-07T10:02:52.117Z,6.1
2018-04-07T10:03:54.507Z,5.9
2018-04-07T10:04:56.884Z,5.9
2018-04-07T10:05:59.282Z,6
2018-04-07T10:07:01.671Z,5.9
2018-04-07T10:08:04.341Z,5.9
2018-04-07T10:09:06.732Z,5.9
2018-04-07T10:10:09.120Z,5.9
2018-04-07T10:11:11.512Z,5.9
2018-04-07T10:12:13.907Z,5.9
2018-04-07T10:13:16.664Z,5.9
2018-04-07T10:14:19.360Z,6.1
2018-04-07T10:15:21.767Z,5.9
2018-04-07T10:16:24.142Z,5.9
2018-04-07T10:17:26.525Z,5.9
2018-04-07T10:18:28.916Z,5.9
2018-04-07T10:19:31.310Z,5.9
2018-04-07T10:20:33.703Z,6
2018-04-07T10:21:36.099Z,5.9
2018-04-07T10:22:38.775Z,5.9
2018-04-07T10:23:41.151Z,5.9
2018-04-07T10:24:43.551Z,5.9
2018-04-07T10:25:45.933Z,5.9
2018-04-07T10:26:48.318Z,6
2018-04-07T10:27:50.716Z,5.9
2018-04-07T10:28:53.103Z,6
2018-04-07T10:29:55.499Z,6
2018-04-07T10:30:58.181Z,6
2018-04-07T10:32:00.565Z,6
2018-04-07T10:33:03.410Z,5.9
2018-04-07T10:34:05.819Z,5.8
2018-04-07T10:35:08.198Z,6
2018-04-07T10:36:10.871Z,6.1
2018-04-07T10:37:13.266Z,6
2018-04-07T10:38:16.034Z,6
2018-04-07T10:39:18.820Z,5.9
2018-04-07T10:40:21.219Z,5.9
2018-04-07T10:41:23.591Z,6
2018-04-07T10:42:25.977Z,6.1
2018-04-07T10:43:28.366Z,6.1
2018-04-07T10:44:30.757Z,6
2018-04-07T10:45:33.150Z,6
2018-04-07T10:46:35.544Z,6
2018-04-07T10:47:37.944Z,6.1
2018-04-07T10:48:40.318Z,6.1
2018-04-07T10:49:42.713Z,6
2018-04-07T10:50:45.113Z,6
2018-04-07T10:51:47.785Z,6.2
2018-04-07T10:52:50.611Z,6.1
2018-04-07T10:53:53.001Z,6.1
2018-04-07T10:54:55.669Z,6.1
2018-04-07T10:55:58.349Z,6.1
2018-04-07T10:57:00.745Z,6
2018-04-07T10:58:03.129Z,6.1
2018-04-07T10:59:06.186Z,6.1
2018-04-07T11:00:09.140Z,6
2018-04-07T11:01:11.537Z,6.1
2018-04-07T11:02:13.921Z,6.1
2018-04-07T11:03:16.311Z,6.2
2018-04-07T11:04:18.707Z,6.1
2018-04-07T11:05:21.385Z,6.1
2018-04-07T11:06:24.066Z,6.1
2018-04-07T11:07:26.453Z,6
2018-04-07T11:08:28.858Z,6
2018-04-07T11:09:31.248Z,6.2
2018-04-07T11:10:34.011Z,6.2
2018-04-07T11:11:36.348Z,6.1
2018-04-07T11:12:39.389Z,6.1
2018-04-07T11:13:41.789Z,6.1
2018-04-07T11:14:44.180Z,6.1
2018-04-07T11:15:46.859Z,6.1
2018-04-07T11:16:49.246Z,6.1
2018-04-07T11:17:51.648Z,6.1
2018-04-07T11:18:54.433Z,6.2
2018-04-07T11:19:56.818Z,6.1
2018-04-07T11:20:59.502Z,6.1
2018-04-07T11:22:02.288Z,6.1
2018-04-07T11:23:05.059Z,6.1
2018-04-07T11:24:07.449Z,6.1
2018-04-07T11:25:09.840Z,6.1
2018-04-07T11:26:12.528Z,6.1
2018-04-07T11:27:15.209Z,6.2
2018-04-07T11:28:17.992Z,6.2
2018-04-07T11:29:20.765Z,6.1
2018-04-07T11:30:23.160Z,6.1
2018-04-07T11:31:25.556Z,6.1
2018-04-07T11:32:27.939Z,6.1
2018-04-07T11:33:30.336Z,6
2018-04-07T11:34:32.738Z,6.2
2018-04-07T11:35:35.114Z,6.3
2018-04-07T11:36:37.524Z,6.2
2018-04-07T11:37:39.918Z,6.1
2018-04-07T11:38:42.584Z,6.2
2018-04-07T11:39:44.982Z,6.2
2018-04-07T11:40:47.367Z,6.1
2018-04-07T11:41:49.758Z,6.1
2018-04-07T11:42:52.441Z,6.1
2018-04-07T11:43:54.825Z,6.1
2018-04-07T11:44:57.224Z,6.1
2018-04-07T11:45:59.627Z,6.1
2018-04-07T11:47:02.021Z,6.2
2018-04-07T11:48:04.413Z,6.2
2018-04-07T11:49:06.808Z,6.1
2018-04-07T11:50:09.510Z,6.2
2018-04-07T11:51:11.899Z,6.2
2018-04-07T11:52:14.294Z,6.2
2018-04-07T11:53:16.684Z,6.1
2018-04-07T11:54:19.077Z,6.2
2018-04-07T11:55:21.480Z,6.2
2018-04-07T11:56:23.872Z,6.2
2018-04-07T11:57:26.644Z,6.2
2018-04-07T11:58:29.036Z,6.2
2018-04-07T11:59:31.424Z,6.2
2018-04-07T12:00:33.824Z,6.3
2018-04-07T12:01:36.876Z,6.3
2018-04-07T12:02:39.666Z,6.5
2018-04-07T12:03:42.010Z,6.2
2018-04-07T12:04:44.409Z,6.2
2018-04-07T12:05:46.807Z,6.2
2018-04-07T12:06:49.480Z,6.2
2018-04-07T12:07:51.924Z,6.3
2018-04-07T12:08:54.270Z,6.3
2018-04-07T12:09:56.939Z,6.2
2018-04-07T12:10:59.347Z,6.3
2018-04-07T12:12:01.736Z,6.3
2018-04-07T12:13:04.522Z,6.2
2018-04-07T12:14:06.912Z,6.3
2018-04-07T12:15:09.304Z,6.2
2018-04-07T12:16:11.692Z,6.2
2018-04-07T12:17:14.087Z,6.2
2018-04-07T12:18:16.469Z,6.2
2018-04-07T12:19:18.870Z,6.2
2018-04-07T12:20:21.268Z,6.2
2018-04-07T12:21:23.958Z,6.2
2018-04-07T12:22:26.364Z,6.2
2018-04-07T12:23:28.766Z,6.2
2018-04-07T12:24:31.155Z,6.2
2018-04-07T12:25:33.945Z,6.2
2018-04-07T12:26:36.613Z,6.2
2018-04-07T12:27:39.010Z,6.4
2018-04-07T12:28:41.422Z,6.3
2018-04-07T12:29:43.815Z,6.2
2018-04-07T12:30:46.869Z,6.3
2018-04-07T12:31:49.264Z,6.3
2018-04-07T12:32:51.952Z,6.3
2018-04-07T12:33:54.770Z,6.4
2018-04-07T12:34:57.151Z,6.3
2018-04-07T12:35:59.584Z,6.3
2018-04-07T12:37:02.095Z,6.3
2018-04-07T12:38:04.865Z,6.3
2018-04-07T12:39:07.325Z,6.3
2018-04-07T12:40:09.780Z,6.3
2018-04-07T12:41:12.431Z,6.3
2018-04-07T12:42:15.332Z,6.3
2018-04-07T12:43:17.780Z,6.3
2018-04-07T12:44:20.931Z,6.5
2018-04-07T12:45:23.403Z,6.8
2018-04-07T12:47:17.208Z,6.4
2018-04-07T12:48:19.957Z,6.4
2018-04-07T12:49:22.409Z,6.3
2018-04-07T12:50:24.858Z,6.4
2018-04-07T12:51:27.495Z,6.3
2018-04-07T12:52:30.979Z,6.4
2018-04-07T12:53:34.120Z,6.4
2018-04-07T12:54:36.514Z,6.3
2018-04-07T12:55:38.956Z,6.3
2018-04-07T12:56:41.411Z,6.3
2018-04-07T12:57:43.864Z,6.5
2018-04-07T12:58:46.637Z,6.4
2018-04-07T12:59:49.082Z,6.3
2018-04-07T13:00:51.545Z,6.4
2018-04-07T13:01:53.998Z,6.3
2018-04-07T13:02:56.453Z,6.3
2018-04-07T13:03:58.896Z,6.4
2018-04-07T13:05:01.338Z,6.4
2018-04-07T13:06:04.088Z,6.3
2018-04-07T13:07:06.533Z,6.4
2018-04-07T13:08:09.296Z,6.3
2018-04-07T13:09:11.761Z,6.4
2018-04-07T13:10:14.198Z,6.5
2018-04-07T13:11:16.653Z,6.5
2018-04-07T13:12:19.176Z,6.6
2018-04-07T13:13:21.621Z,6.4
2018-04-07T13:14:24.076Z,7
2018-04-07T13:15:26.826Z,6.6
2018-04-07T13:16:29.281Z,6.6
2018-04-07T13:17:31.740Z,6.9
2018-04-07T13:18:34.201Z,6.4
2018-04-07T13:19:36.653Z,6.8
2018-04-07T13:20:39.098Z,6.4
2018-04-07T13:21:41.555Z,6.8
2018-04-07T13:22:44.003Z,6.4
2018-04-07T13:23:46.456Z,6.5
2018-04-07T13:24:48.900Z,6.5
2018-04-07T13:25:51.358Z,6.4
2018-04-07T13:26:53.809Z,6.5
2018-04-07T13:27:56.261Z,6.3
2018-04-07T13:28:59.279Z,6.6
2018-04-07T13:30:01.727Z,6.6
2018-04-07T13:31:04.181Z,6.6
2018-04-07T13:32:06.928Z,6.4
2018-04-07T13:33:09.382Z,6.4
2018-04-07T13:34:11.836Z,6.5
2018-04-07T13:35:14.272Z,6.5
2018-04-07T13:36:17.031Z,6.5
2018-04-07T13:37:19.758Z,6.7
2018-04-07T13:38:22.218Z,6.6
2018-04-07T13:39:24.664Z,6.6
2018-04-07T13:40:27.120Z,6.4
2018-04-07T13:41:29.570Z,6.4
2018-04-07T13:42:32.023Z,6.4
2018-04-07T13:43:34.467Z,6.4
2018-04-07T13:44:36.920Z,6.3
2018-04-07T13:45:39.758Z,6.4
2018-04-07T13:46:42.203Z,6.5
2018-04-07T13:47:44.952Z,6.4
2018-04-07T13:48:47.401Z,6.3
2018-04-07T13:49:49.841Z,6.5
2018-04-07T13:50:52.298Z,6.4
2018-04-07T13:51:54.753Z,6.7
2018-04-07T13:52:57.199Z,6.5
2018-04-07T13:53:59.656Z,6.4
2018-04-07T13:55:02.111Z,6.6
2018-04-07T13:56:04.565Z,6.3
2018-04-07T13:57:07.013Z,6.5
2018-04-07T13:58:09.460Z,6.4
2018-04-07T13:59:11.903Z,6.8
2018-04-07T14:00:14.363Z,6.6
2018-04-07T14:01:16.813Z,6.5
2018-04-07T14:02:19.255Z,6.4
2018-04-07T14:03:21.710Z,6.5
2018-04-07T14:04:24.178Z,6.5
2018-04-07T14:05:26.998Z,6.5
2018-04-07T14:06:29.451Z,6.5
2018-04-07T14:07:31.897Z,6.4
2018-04-07T14:08:34.354Z,6.3
2018-04-07T14:09:36.801Z,6.5
2018-04-07T14:10:39.264Z,6.4
2018-04-07T14:11:41.690Z,6.4
2018-04-07T14:12:44.138Z,6.4
2018-04-07T14:13:46.582Z,6.4
2018-04-07T14:14:49.030Z,6.6
2018-04-07T14:15:51.861Z,6.3
2018-04-07T14:16:54.321Z,6.3
2018-04-07T14:17:56.773Z,6.3
2018-04-07T14:18:59.224Z,6.3
2018-04-07T14:20:01.680Z,6.5
2018-04-07T14:21:04.444Z,6.3
2018-04-07T14:22:06.889Z,6.6
2018-04-07T14:23:09.350Z,7.3
2018-04-07T14:24:11.784Z,6.4
2018-04-07T14:25:14.615Z,6.4
2018-04-07T14:26:17.362Z,6.5
2018-04-07T14:27:20.092Z,6.6